Time;durP1;ratioP1;P1;durP2;ratioP2;P2;SDS_P1;SDS_P2;PMS_P1;PMS_P2;Temp;Humidity;BMP_temperature;BMP_pressure;BME280_temperature;BME280_humidity;BME280_pressure;Samples;Min_cycle;Max_cycle;Signal;HPM_P1;HPM_P2
2022/03/06 00:00:14;;;;;;;24.63;22.20;;;-1.20;15.30;;;;;;4978455;28;20712;-73
2022/03/06 00:02:40;;;;;;;24.38;21.83;;;-1.30;15.10;;;;;;4990562;28;20185;-74
2022/03/06 00:05:07;;;;;;;24.08;21.67;;;-1.30;15.20;;;;;;4976067;28;20166;-73
2022/03/06 00:07:32;;;;;;;25.27;22.98;;;-1.30;15.30;;;;;;4975719;28;20181;-74
2022/03/06 00:09:58;;;;;;;25.10;22.20;;;-1.30;15.00;;;;;;4976062;28;20177;-75
2022/03/06 00:12:23;;;;;;;23.73;21.30;;;-1.40;15.00;;;;;;4975725;28;20268;-72
2022/03/06 00:14:49;;;;;;;22.90;20.90;;;-1.40;15.80;;;;;;4975006;28;20185;-74
2022/03/06 00:17:15;;;;;;;23.17;21.07;;;-1.50;15.20;;;;;;4975290;28;20229;-73
2022/03/06 00:19:41;;;;;;;24.63;22.13;;;-1.60;16.00;;;;;;4976159;28;20209;-74
2022/03/06 00:22:06;;;;;;;23.33;21.20;;;-1.70;15.90;;;;;;4975771;28;20196;-73
2022/03/06 00:24:32;;;;;;;24.17;21.77;;;-1.60;15.90;;;;;;4978755;28;20175;-74
2022/03/06 00:26:57;;;;;;;24.37;21.77;;;-1.60;15.90;;;;;;4977423;28;20201;-73
2022/03/06 00:29:23;;;;;;;25.03;22.60;;;-1.80;15.80;;;;;;4979242;28;20188;-74
2022/03/06 00:31:48;;;;;;;21.77;19.20;;;-1.70;15.90;;;;;;4979030;28;20189;-73
2022/03/06 00:34:14;;;;;;;26.10;22.13;;;-1.70;15.90;;;;;;4979134;28;20180;-72
2022/03/06 00:36:39;;;;;;;21.10;19.37;;;-1.70;15.90;;;;;;4959488;28;20704;-70
2022/03/06 00:39:05;;;;;;;22.60;20.33;;;-1.80;15.80;;;;;;4959772;29;20714;-75
2022/03/06 00:41:31;;;;;;;25.43;23.10;;;-1.70;15.90;;;;;;4959846;28;20189;-74
2022/03/06 00:43:56;;;;;;;22.20;20.40;;;-1.70;15.90;;;;;;4959701;29;20178;-73
2022/03/06 00:46:22;;;;;;;24.10;20.93;;;-1.70;15.90;;;;;;4964072;28;20245;-72
2022/03/06 00:48:48;;;;;;;25.60;22.50;;;-1.70;15.90;;;;;;4978652;28;20189;-74
2022/03/06 00:51:14;;;;;;;25.17;22.37;;;-1.70;15.90;;;;;;4978904;28;20658;-74
2022/03/06 00:53:40;;;;;;;24.88;22.35;;;-1.70;15.90;;;;;;4978751;28;20246;-74
2022/03/06 00:56:05;;;;;;;22.37;20.23;;;-1.70;15.90;;;;;;4978832;28;20682;-74
2022/03/06 00:58:31;;;;;;;23.50;21.13;;;-1.70;15.90;;;;;;4977311;28;20200;-74
2022/03/06 01:00:56;;;;;;;22.90;20.60;;;-1.80;15.80;;;;;;4979029;28;20701;-73
2022/03/06 01:03:22;;;;;;;24.40;22.43;;;-1.90;16.10;;;;;;4977531;28;20185;-74
2022/03/06 01:05:48;;;;;;;22.90;20.70;;;-1.90;16.50;;;;;;4978902;28;20193;-73
2022/03/06 01:08:14;;;;;;;28.00;21.10;;;-1.90;16.40;;;;;;4977112;28;20475;-73
2022/03/06 01:10:42;;;;;;;22.70;20.50;;;-1.90;16.30;;;;;;4978279;28;20685;-74
2022/03/06 01:13:09;;;;;;;24.92;22.55;;;-1.90;15.90;;;;;;4978143;28;20926;-73
2022/03/06 01:15:35;;;;;;;24.98;21.98;;;-1.90;15.80;;;;;;4979751;28;20225;-73
2022/03/06 01:18:02;;;;;;;24.05;21.65;;;-1.90;16.70;;;;;;4978094;28;20213;-73
2022/03/06 01:20:28;;;;;;;22.33;20.23;;;-2.00;16.60;;;;;;4978462;28;20208;-73
2022/03/06 01:22:54;;;;;;;24.20;21.97;;;-2.10;16.80;;;;;;4975324;28;20189;-72
2022/03/06 01:25:20;;;;;;;25.77;23.00;;;-2.10;17.10;;;;;;4974027;28;20272;-73
2022/03/06 01:27:46;;;;;;;23.80;21.50;;;-2.10;17.30;;;;;;4976611;28;20830;-71
2022/03/06 01:30:15;;;;;;;22.55;20.65;;;-2.10;17.70;;;;;;4973753;28;20185;-74
2022/03/06 01:32:41;;;;;;;22.75;20.60;;;-2.20;17.80;;;;;;4976109;28;20654;-74
2022/03/06 01:35:07;;;;;;;24.02;21.20;;;-2.20;17.70;;;;;;4975749;28;20643;-74
2022/03/06 01:37:34;;;;;;;24.10;21.70;;;-2.10;17.60;;;;;;4975257;28;20201;-73
2022/03/06 01:39:59;;;;;;;23.05;20.85;;;-2.10;17.70;;;;;;4973666;28;20674;-72
2022/03/06 01:42:25;;;;;;;22.60;20.23;;;-2.20;17.70;;;;;;4974110;28;20205;-73
2022/03/06 01:44:51;;;;;;;22.83;20.60;;;-2.30;17.90;;;;;;4974368;28;20427;-74
2022/03/06 01:47:40;;;;;;;22.07;20.07;;;-2.30;18.20;;;;;;4976098;28;20820;-74
2022/03/06 01:50:09;;;;;;;24.23;22.02;;;-2.30;18.80;;;;;;4977773;28;20417;-74
2022/03/06 01:52:35;;;;;;;22.33;20.30;;;-2.40;18.30;;;;;;4971876;28;20258;-74
2022/03/06 01:55:01;;;;;;;24.00;21.70;;;-2.40;18.20;;;;;;4974908;28;20232;-73
2022/03/06 01:57:29;;;;;;;23.53;20.83;;;-2.30;17.90;;;;;;4974024;28;20534;-74
2022/03/06 01:59:55;;;;;;;25.23;21.65;;;-2.30;17.80;;;;;;4972868;28;20423;-73
2022/03/06 02:02:20;;;;;;;24.50;20.30;;;-2.30;17.90;;;;;;4977473;28;20305;-74
2022/03/06 02:04:46;;;;;;;23.10;20.70;;;-2.30;17.80;;;;;;4977427;28;20201;-73
2022/03/06 02:07:11;;;;;;;23.20;20.80;;;-2.30;17.80;;;;;;4975554;28;20544;-73
2022/03/06 02:09:37;;;;;;;23.33;20.93;;;-2.20;17.60;;;;;;4977148;28;20326;-73
2022/03/06 02:12:21;;;;;;;22.47;20.27;;;-2.30;17.70;;;;;;4975632;28;20271;-73
2022/03/06 02:14:48;;;;;;;23.23;21.15;;;-2.30;18.10;;;;;;4977295;28;20180;-73
2022/03/06 02:17:13;;;;;;;22.35;20.30;;;-2.30;17.90;;;;;;4976957;28;20201;-73
2022/03/06 02:19:55;;;;;;;23.90;21.47;;;-2.20;18.20;;;;;;4975685;28;20654;-73
2022/03/06 02:22:24;;;;;;;21.85;19.90;;;-2.30;18.60;;;;;;4976714;28;20251;-73
2022/03/06 02:24:50;;;;;;;23.65;20.95;;;-2.30;18.40;;;;;;4976930;28;20252;-73
2022/03/06 02:27:16;;;;;;;24.63;22.23;;;-2.40;18.60;;;;;;4991378;28;20201;-73
2022/03/06 02:29:42;;;;;;;22.70;20.20;;;-2.30;18.50;;;;;;4976894;28;20287;-73
2022/03/06 02:32:09;;;;;;;22.90;20.63;;;-2.40;18.70;;;;;;4976591;28;20545;-73
2022/03/06 02:34:39;;;;;;;25.00;22.58;;;-2.40;18.80;;;;;;4976655;28;20170;-73
2022/03/06 02:37:05;;;;;;;23.60;21.55;;;-2.40;18.80;;;;;;4991303;28;20220;-73
2022/03/06 02:39:31;;;;;;;24.57;22.00;;;-2.50;19.10;;;;;;4976663;28;20213;-73
2022/03/06 02:41:57;;;;;;;29.30;22.77;;;-2.60;19.40;;;;;;4976550;28;20427;-74
2022/03/06 02:44:22;;;;;;;23.08;20.60;;;-2.50;19.50;;;;;;4976580;28;20173;-74
2022/03/06 02:46:49;;;;;;;26.97;22.17;;;-2.50;19.50;;;;;;4975757;28;20216;-74
2022/03/06 02:49:17;;;;;;;21.67;19.55;;;-2.40;19.50;;;;;;4975057;28;20654;-74
2022/03/06 02:51:44;;;;;;;23.33;21.20;;;-2.40;19.60;;;;;;4976584;28;20547;-74
2022/03/06 02:54:11;;;;;;;22.23;20.00;;;-2.40;19.20;;;;;;4976998;28;20169;-73
2022/03/06 02:56:37;;;;;;;23.52;20.88;;;-2.40;19.20;;;;;;4976320;28;20197;-74
2022/03/06 02:59:03;;;;;;;24.40;21.83;;;-2.40;19.60;;;;;;4976845;28;20545;-74
2022/03/06 03:01:29;;;;;;;24.00;21.70;;;-2.40;19.60;;;;;;4976473;28;20459;-73
2022/03/06 03:03:55;;;;;;;22.27;20.03;;;-2.50;19.50;;;;;;4976379;28;20185;-74
2022/03/06 03:06:20;;;;;;;23.80;21.00;;;-2.60;19.40;;;;;;4976630;28;20440;-71
2022/03/06 03:08:46;;;;;;;21.30;19.40;;;-2.50;19.50;;;;;;4975124;28;20265;-73
2022/03/06 03:11:13;;;;;;;24.13;20.63;;;-2.50;19.50;;;;;;4976436;28;20200;-73
2022/03/06 03:13:38;;;;;;;21.08;19.27;;;-2.40;19.60;;;;;;4976452;28;20358;-73
2022/03/06 03:16:05;;;;;;;21.20;19.13;;;-2.50;19.50;;;;;;4977160;28;20256;-73
2022/03/06 03:18:31;;;;;;;22.83;20.45;;;-2.50;19.50;;;;;;4972918;28;20232;-75
2022/03/06 03:20:56;;;;;;;20.80;18.80;;;-2.50;19.50;;;;;;4976653;28;20187;-73
2022/03/06 03:23:22;;;;;;;22.10;19.57;;;-2.50;19.80;;;;;;4974684;28;20244;-73
2022/03/06 03:25:47;;;;;;;23.40;21.03;;;-2.50;20.30;;;;;;4975830;28;20226;-73
2022/03/06 03:28:13;;;;;;;20.30;18.33;;;-2.50;19.80;;;;;;4976069;28;20257;-73
2022/03/06 03:30:38;;;;;;;21.20;19.10;;;-2.50;19.90;;;;;;4976273;28;20721;-73
2022/03/06 03:33:04;;;;;;;21.63;19.53;;;-2.50;19.70;;;;;;4975892;28;20671;-72
2022/03/06 03:35:30;;;;;;;24.83;20.73;;;-2.60;20.10;;;;;;4976046;28;20212;-73
2022/03/06 03:37:55;;;;;;;23.60;20.90;;;-2.60;20.20;;;;;;4975374;28;20288;-75
2022/03/06 03:40:21;;;;;;;21.47;19.67;;;-2.70;20.70;;;;;;4973628;28;20189;-75
2022/03/06 03:42:46;;;;;;;24.90;22.23;;;-2.70;20.80;;;;;;4974375;28;20274;-75
2022/03/06 03:45:12;;;;;;;21.17;19.03;;;-2.50;20.90;;;;;;4975781;28;20185;-74
2022/03/06 03:47:37;;;;;;;22.77;20.30;;;-2.60;20.90;;;;;;4975987;28;20236;-73
2022/03/06 03:50:05;;;;;;;20.70;18.80;;;-2.70;21.20;;;;;;4976027;28;20177;-73
2022/03/06 03:52:30;;;;;;;22.15;20.02;;;-2.70;21.50;;;;;;4990512;28;20433;-73
2022/03/06 03:54:56;;;;;;;22.67;20.17;;;-2.70;21.90;;;;;;4976014;28;20192;-73
2022/03/06 03:57:23;;;;;;;25.10;19.63;;;-2.70;21.90;;;;;;4976457;28;20224;-74
2022/03/06 03:59:49;;;;;;;24.23;19.30;;;-2.60;21.20;;;;;;4979598;28;20196;-73
2022/03/06 04:02:15;;;;;;;24.80;22.33;;;-2.50;21.00;;;;;;4979287;28;20178;-73
2022/03/06 04:04:40;;;;;;;24.40;21.20;;;-2.60;20.90;;;;;;4979622;28;20413;-74
2022/03/06 04:07:06;;;;;;;30.13;21.57;;;-2.60;21.10;;;;;;4979227;28;20655;-73
2022/03/06 04:09:32;;;;;;;22.50;20.30;;;-2.60;21.00;;;;;;4979466;28;20178;-73
2022/03/06 04:11:57;;;;;;;23.07;20.87;;;-2.50;20.80;;;;;;4979407;28;20669;-73
2022/03/06 04:14:23;;;;;;;23.00;20.83;;;-2.60;20.90;;;;;;4979154;28;20212;-73
2022/03/06 04:16:48;;;;;;;24.30;21.83;;;-2.60;21.00;;;;;;4978762;28;20268;-73
2022/03/06 04:19:14;;;;;;;25.33;19.47;;;-2.50;20.90;;;;;;4980151;28;20647;-74
2022/03/06 04:21:40;;;;;;;23.30;20.93;;;-2.70;20.90;;;;;;4979140;28;20603;-74
2022/03/06 04:24:06;;;;;;;25.33;21.48;;;-2.70;21.10;;;;;;4994275;28;20538;-73
2022/03/06 04:26:32;;;;;;;21.47;19.30;;;-2.80;21.10;;;;;;4971048;28;20216;-71
2022/03/06 04:28:58;;;;;;;23.33;20.98;;;-2.70;21.40;;;;;;4975719;28;21580;-74
2022/03/06 04:31:23;;;;;;;21.67;19.40;;;-2.60;21.40;;;;;;4978899;28;20220;-73
2022/03/06 04:33:49;;;;;;;22.53;20.43;;;-2.70;21.40;;;;;;4979190;28;20468;-75
2022/03/06 04:36:14;;;;;;;21.33;19.33;;;-2.60;21.20;;;;;;4977625;28;20205;-74
2022/03/06 04:38:41;;;;;;;28.30;21.40;;;-2.50;21.00;;;;;;4978826;28;20220;-74
2022/03/06 04:41:06;;;;;;;23.25;20.77;;;-2.60;20.90;;;;;;4979103;28;20524;-75
2022/03/06 04:43:32;;;;;;;24.10;21.37;;;-2.60;21.00;;;;;;4978767;28;20185;-74
2022/03/06 04:45:57;;;;;;;26.37;22.13;;;-2.70;21.30;;;;;;4974849;28;20218;-72
2022/03/06 04:48:23;;;;;;;23.73;19.70;;;-2.70;21.40;;;;;;4980462;23;20251;-71
2022/03/06 04:50:49;;;;;;;25.20;21.20;;;-2.80;21.60;;;;;;4951573;29;20188;-71
2022/03/06 04:53:14;;;;;;;24.00;21.70;;;-2.80;21.30;;;;;;4955325;28;20190;-71
2022/03/06 04:55:40;;;;;;;20.90;18.87;;;-2.70;21.10;;;;;;4954338;29;20244;-72
2022/03/06 04:58:06;;;;;;;23.27;20.83;;;-2.70;21.20;;;;;;4970311;28;20233;-72
2022/03/06 05:00:33;;;;;;;22.40;18.85;;;-2.70;20.90;;;;;;4955382;28;20174;-71
2022/03/06 05:02:58;;;;;;;21.42;19.13;;;-2.70;21.10;;;;;;4955304;28;20210;-71
2022/03/06 05:05:24;;;;;;;22.50;20.23;;;-2.70;21.00;;;;;;4956326;28;20213;-71
2022/03/06 05:07:49;;;;;;;27.87;21.47;;;-2.70;21.30;;;;;;4955931;29;20576;-72
2022/03/06 05:10:15;;;;;;;22.70;20.27;;;-2.80;21.30;;;;;;4955719;28;20190;-72
2022/03/06 05:12:41;;;;;;;24.60;19.30;;;-2.90;21.10;;;;;;4956419;29;20186;-72
2022/03/06 05:15:11;;;;;;;21.50;19.27;;;-2.90;21.30;;;;;;4956220;29;20182;-71
2022/03/06 05:17:38;;;;;;;21.73;19.52;;;-2.80;21.00;;;;;;4955046;28;20205;-72
2022/03/06 05:20:05;;;;;;;20.17;18.58;;;-2.80;21.30;;;;;;4971280;28;20193;-72
2022/03/06 05:22:30;;;;;;;20.42;18.55;;;-2.90;21.30;;;;;;4971165;28;20667;-72
2022/03/06 05:24:58;;;;;;;20.50;18.30;;;-2.90;21.50;;;;;;4956005;29;20505;-71
2022/03/06 05:27:24;;;;;;;22.55;20.08;;;-2.90;21.20;;;;;;4955654;28;20292;-72
2022/03/06 05:29:49;;;;;;;21.70;19.45;;;-2.90;21.20;;;;;;4955953;28;20178;-72
2022/03/06 05:32:15;;;;;;;23.13;20.70;;;-2.80;21.00;;;;;;4956163;29;20256;-71
2022/03/06 05:34:40;;;;;;;21.57;19.50;;;-2.80;20.90;;;;;;4955995;28;20290;-72
2022/03/06 05:37:06;;;;;;;21.73;19.60;;;-2.90;21.40;;;;;;4955448;28;20182;-73
2022/03/06 05:39:31;;;;;;;21.87;19.60;;;-2.90;21.30;;;;;;4954649;28;20221;-72
2022/03/06 05:41:57;;;;;;;24.50;20.77;;;-3.10;21.60;;;;;;4956301;28;20549;-72
2022/03/06 05:44:24;;;;;;;21.47;19.20;;;-3.10;21.60;;;;;;4956106;28;20233;-73
2022/03/06 05:46:50;;;;;;;24.33;21.38;;;-3.10;21.70;;;;;;4955841;28;20545;-72
2022/03/06 05:49:15;;;;;;;26.17;21.00;;;-3.10;22.00;;;;;;4955789;28;20218;-72
2022/03/06 05:51:42;;;;;;;22.73;20.37;;;-3.00;21.80;;;;;;4956287;29;20639;-72
2022/03/06 05:54:08;;;;;;;22.35;18.88;;;-3.00;21.70;;;;;;4970519;28;20328;-72
2022/03/06 05:56:34;;;;;;;23.48;21.30;;;-3.10;21.80;;;;;;4955572;28;20188;-72
2022/03/06 05:59:00;;;;;;;24.92;20.55;;;-3.20;22.10;;;;;;4955653;28;20224;-72
2022/03/06 06:01:29;;;;;;;26.83;22.00;;;-3.10;22.80;;;;;;4970755;28;20181;-72
2022/03/06 06:03:55;;;;;;;19.80;17.77;;;-3.10;22.40;;;;;;4955506;28;20264;-73
2022/03/06 06:06:21;;;;;;;23.13;20.70;;;-3.20;22.40;;;;;;4970577;28;20213;-72
2022/03/06 06:08:47;;;;;;;20.87;18.90;;;-3.10;22.80;;;;;;4955630;28;20206;-72
2022/03/06 06:11:12;;;;;;;21.00;18.57;;;-3.10;22.60;;;;;;4954296;28;20864;-71
2022/03/06 06:13:38;;;;;;;22.90;18.87;;;-3.10;22.70;;;;;;4955593;28;20182;-71
2022/03/06 06:16:03;;;;;;;24.23;21.77;;;-3.10;22.50;;;;;;4955286;28;20634;-72
2022/03/06 06:18:31;;;;;;;19.63;17.60;;;-3.00;22.10;;;;;;4954540;28;20214;-71
2022/03/06 06:20:57;;;;;;;22.67;20.42;;;-3.20;23.10;;;;;;4953800;28;20257;-72
2022/03/06 06:23:23;;;;;;;21.73;19.45;;;-3.10;23.70;;;;;;4953677;28;20181;-71
2022/03/06 06:25:48;;;;;;;21.40;19.03;;;-3.00;22.60;;;;;;4955111;29;20174;-71
2022/03/06 06:28:14;;;;;;;21.03;19.07;;;-3.00;22.90;;;;;;4954693;29;20714;-71
2022/03/06 06:30:39;;;;;;;29.43;22.10;;;-2.90;22.80;;;;;;4955025;29;20236;-72
2022/03/06 06:33:05;;;;;;;22.63;20.60;;;-2.90;22.50;;;;;;4954732;29;20185;-71
2022/03/06 06:35:32;;;;;;;21.20;18.90;;;-2.90;22.50;;;;;;4954518;29;20225;-68
2022/03/06 06:37:57;;;;;;;21.65;19.55;;;-2.80;22.30;;;;;;4953186;28;20210;-68
2022/03/06 06:40:23;;;;;;;22.57;20.20;;;-2.80;22.10;;;;;;4954753;28;20182;-69
2022/03/06 06:42:48;;;;;;;22.40;19.57;;;-2.70;22.20;;;;;;4953493;28;20182;-68
2022/03/06 06:45:14;;;;;;;22.23;19.30;;;-2.70;22.00;;;;;;4954919;29;20181;-70
2022/03/06 06:47:40;;;;;;;24.10;20.50;;;-2.60;22.20;;;;;;4954282;29;20220;-68
2022/03/06 06:50:06;;;;;;;20.57;18.63;;;-2.50;21.60;;;;;;4954441;29;20575;-68
2022/03/06 06:52:31;;;;;;;21.50;19.23;;;-2.60;21.80;;;;;;4954383;29;20533;-68
2022/03/06 06:54:57;;;;;;;21.33;19.40;;;-2.50;21.80;;;;;;4954466;29;20184;-69
2022/03/06 06:57:23;;;;;;;22.57;20.43;;;-2.40;21.70;;;;;;4952851;28;20216;-68
2022/03/06 06:59:48;;;;;;;22.77;20.73;;;-2.30;21.10;;;;;;4954712;29;20220;-69
2022/03/06 07:02:14;;;;;;;22.70;20.40;;;-2.30;21.00;;;;;;4953903;29;20853;-68
2022/03/06 07:04:39;;;;;;;24.30;20.73;;;-2.20;21.10;;;;;;4953895;28;20561;-68
2022/03/06 07:07:05;;;;;;;21.30;19.00;;;-2.30;21.30;;;;;;4953862;29;20224;-68
2022/03/06 07:09:30;;;;;;;21.47;19.47;;;-2.20;21.30;;;;;;4953088;29;20217;-68
2022/03/06 07:11:56;;;;;;;21.83;19.50;;;-2.10;21.00;;;;;;4954024;29;20178;-68
2022/03/06 07:14:21;;;;;;;23.50;21.13;;;-1.90;21.10;;;;;;4953795;29;20178;-68
2022/03/06 07:16:47;;;;;;;22.73;20.43;;;-1.80;20.70;;;;;;4953422;29;20268;-68
2022/03/06 07:19:13;;;;;;;24.10;21.60;;;-1.70;20.50;;;;;;4952810;28;20256;-68
2022/03/06 07:21:38;;;;;;;21.67;19.67;;;-1.50;20.50;;;;;;4960977;28;20675;-68
2022/03/06 07:24:05;;;;;;;24.57;20.70;;;-1.40;20.20;;;;;;4973465;28;20713;-68
2022/03/06 07:26:31;;;;;;;21.05;18.55;;;-1.30;20.30;;;;;;4957354;28;20184;-68
2022/03/06 07:28:56;;;;;;;21.80;19.50;;;-1.30;20.20;;;;;;4968252;28;20201;-68
2022/03/06 07:31:22;;;;;;;22.83;20.53;;;-1.10;20.00;;;;;;4953527;28;20190;-68
2022/03/06 07:33:47;;;;;;;22.53;20.33;;;-0.90;19.90;;;;;;4957107;28;20192;-68
2022/03/06 07:36:13;;;;;;;24.30;21.77;;;-0.80;20.00;;;;;;4957810;28;20186;-68
2022/03/06 07:38:39;;;;;;;24.30;21.97;;;-0.60;19.30;;;;;;4970769;28;20234;-68
2022/03/06 07:41:05;;;;;;;23.03;20.73;;;-0.50;19.00;;;;;;4976713;28;20905;-68
2022/03/06 07:43:30;;;;;;;24.73;22.17;;;-0.20;18.80;;;;;;4976608;28;20693;-68
2022/03/06 07:45:56;;;;;;;24.30;20.80;;;-0.10;18.30;;;;;;4976883;28;20178;-68
2022/03/06 07:48:22;;;;;;;22.97;20.87;;;0.00;18.30;;;;;;4976099;28;20228;-68
2022/03/06 07:50:48;;;;;;;22.00;20.35;;;0.20;18.00;;;;;;4976486;28;20565;-68
2022/03/06 07:53:13;;;;;;;21.50;19.60;;;0.30;17.50;;;;;;4975288;28;20241;-68
2022/03/06 07:55:39;;;;;;;21.80;19.90;;;0.30;17.10;;;;;;4976433;28;20261;-68
2022/03/06 07:58:05;;;;;;;22.13;19.93;;;0.10;18.00;;;;;;4976148;28;20206;-69
2022/03/06 08:00:30;;;;;;;22.27;19.93;;;0.30;17.30;;;;;;4977074;28;20422;-69
2022/03/06 08:02:56;;;;;;;20.33;18.43;;;-0.30;18.50;;;;;;4976400;28;20208;-69
2022/03/06 08:05:23;;;;;;;21.27;19.43;;;-0.40;18.30;;;;;;4977988;28;20250;-68
2022/03/06 08:07:48;;;;;;;21.15;19.20;;;-0.70;19.50;;;;;;4976093;28;20272;-68
2022/03/06 08:10:14;;;;;;;23.80;20.27;;;-0.60;19.50;;;;;;4976185;28;20177;-68
2022/03/06 08:12:43;;;;;;;22.40;20.25;;;-0.20;19.50;;;;;;4975910;28;20201;-69
2022/03/06 08:15:09;;;;;;;24.13;21.10;;;-0.10;18.50;;;;;;4975178;28;20185;-68
2022/03/06 08:17:36;;;;;;;22.35;20.20;;;0.10;18.30;;;;;;4954615;28;20211;-68
2022/03/06 08:20:03;;;;;;;21.10;19.17;;;-0.10;18.40;;;;;;4949787;28;20258;-68
2022/03/06 08:22:28;;;;;;;21.63;19.55;;;-0.10;18.50;;;;;;4957571;28;20238;-68
2022/03/06 08:24:54;;;;;;;23.40;21.20;;;0.10;18.20;;;;;;4951237;28;20185;-69
2022/03/06 08:27:21;;;;;;;22.45;20.20;;;0.10;18.50;;;;;;4936660;29;20622;-69
2022/03/06 08:29:46;;;;;;;21.45;19.65;;;0.20;18.20;;;;;;4950345;29;20187;-69
2022/03/06 08:32:12;;;;;;;23.27;20.47;;;0.30;18.00;;;;;;4951492;29;20187;-69
2022/03/06 08:34:38;;;;;;;20.60;18.67;;;0.30;18.30;;;;;;4950237;28;20613;-68
2022/03/06 08:37:04;;;;;;;20.00;18.37;;;0.20;18.90;;;;;;4952095;28;20222;-69
2022/03/06 08:39:29;;;;;;;24.60;21.00;;;0.20;18.30;;;;;;4952015;28;20297;-70
2022/03/06 08:41:55;;;;;;;21.70;19.50;;;0.40;18.30;;;;;;4953389;28;20270;-69
2022/03/06 08:44:21;;;;;;;21.13;19.00;;;0.60;18.00;;;;;;4951909;28;20187;-69
2022/03/06 08:46:47;;;;;;;21.17;19.57;;;0.60;17.80;;;;;;4951667;28;20191;-70
2022/03/06 08:49:12;;;;;;;24.20;20.63;;;0.80;17.50;;;;;;4951037;29;20475;-69
2022/03/06 08:51:38;;;;;;;21.93;19.47;;;0.60;17.70;;;;;;4951945;28;20431;-68
2022/03/06 08:54:04;;;;;;;20.13;18.23;;;0.90;17.50;;;;;;4952300;28;20217;-69
2022/03/06 08:56:29;;;;;;;21.97;19.73;;;1.00;17.60;;;;;;4950577;28;20543;-68
2022/03/06 08:58:55;;;;;;;20.60;18.80;;;1.10;17.70;;;;;;4950960;28;21020;-69
2022/03/06 09:01:21;;;;;;;23.27;21.00;;;1.00;17.60;;;;;;4952233;28;20191;-69
2022/03/06 09:03:47;;;;;;;21.97;20.00;;;1.00;17.60;;;;;;4950997;28;20441;-68
2022/03/06 09:06:12;;;;;;;21.50;19.77;;;1.40;17.80;;;;;;4952288;29;20189;-69
2022/03/06 09:08:38;;;;;;;21.17;19.17;;;1.60;16.40;;;;;;4953179;28;20244;-70
2022/03/06 09:11:06;;;;;;;20.57;18.47;;;1.60;13.70;;;;;;4967574;28;20200;-69
2022/03/06 09:13:33;;;;;;;22.10;20.05;;;1.80;14.80;;;;;;4952271;28;20290;-69
2022/03/06 09:15:59;;;;;;;20.05;18.40;;;1.90;14.80;;;;;;4951076;28;20194;-70
2022/03/06 09:18:24;;;;;;;21.57;19.50;;;1.90;14.30;;;;;;4951423;28;20221;-69
2022/03/06 09:20:50;;;;;;;23.00;20.73;;;1.90;15.30;;;;;;4970364;28;20540;-70
2022/03/06 09:23:16;;;;;;;22.67;20.30;;;2.20;14.10;;;;;;4970818;28;20188;-69
2022/03/06 09:25:42;;;;;;;21.92;20.02;;;2.30;13.90;;;;;;4962668;28;20182;-68
2022/03/06 09:28:08;;;;;;;21.40;19.63;;;2.50;13.20;;;;;;4952032;28;20216;-69
2022/03/06 09:30:34;;;;;;;20.07;18.27;;;2.40;11.80;;;;;;4951316;29;20182;-70
2022/03/06 09:33:00;;;;;;;20.90;18.95;;;2.60;12.00;;;;;;4952264;28;20579;-69
2022/03/06 09:35:25;;;;;;;24.98;20.02;;;2.70;12.80;;;;;;4950214;29;20190;-68
2022/03/06 09:37:51;;;;;;;22.67;20.67;;;2.70;12.50;;;;;;4949356;28;20216;-69
2022/03/06 09:40:18;;;;;;;19.90;18.33;;;2.70;12.80;;;;;;4952264;28;20178;-68
2022/03/06 09:42:43;;;;;;;23.95;20.85;;;2.60;11.10;;;;;;4951437;28;20193;-69
2022/03/06 09:45:13;;;;;;;22.40;20.30;;;2.90;11.70;;;;;;4949842;28;20346;-68
2022/03/06 09:47:40;;;;;;;20.65;18.88;;;3.00;11.90;;;;;;4948622;28;20468;-67
2022/03/06 09:50:08;;;;;;;22.33;20.10;;;3.00;11.90;;;;;;4955024;28;20672;-69
2022/03/06 09:52:34;;;;;;;20.80;18.80;;;3.00;12.20;;;;;;4950608;28;20217;-68
2022/03/06 09:55:00;;;;;;;21.20;19.50;;;3.10;11.30;;;;;;4952116;28;20664;-67
2022/03/06 09:57:26;;;;;;;20.65;18.75;;;3.10;11.50;;;;;;4952195;28;20230;-68
2022/03/06 09:59:53;;;;;;;21.90;19.80;;;3.10;11.30;;;;;;4950979;28;20217;-69
2022/03/06 10:02:19;;;;;;;19.67;18.03;;;3.20;10.50;;;;;;4950761;28;20277;-68
2022/03/06 10:04:47;;;;;;;19.50;17.83;;;3.40;10.60;;;;;;4954708;28;20242;-68
2022/03/06 10:07:15;;;;;;;19.42;17.92;;;3.70;6.40;;;;;;4954904;28;20297;-68
2022/03/06 10:09:50;;;;;;;18.55;16.98;;;3.90;5.60;;;;;;4953214;28;20193;-69
2022/03/06 10:12:19;;;;;;;19.27;17.75;;;4.20;5.50;;;;;;4952882;28;20620;-69
2022/03/06 10:14:46;;;;;;;20.17;18.70;;;4.40;4.40;;;;;;4953140;28;20186;-69
2022/03/06 10:17:13;;;;;;;18.88;17.58;;;4.40;5.10;;;;;;4953218;28;20676;-70
2022/03/06 10:20:05;;;;;;;20.23;18.77;;;4.50;3.80;;;;;;4965203;28;20216;-69
2022/03/06 10:22:34;;;;;;;19.80;18.35;;;4.60;3.70;;;;;;4946438;29;20215;-69
2022/03/06 10:25:05;;;;;;;20.30;18.80;;;4.70;4.20;;;;;;4937842;29;20186;-69
2022/03/06 10:27:54;;;;;;;18.23;16.85;;;5.00;3.50;;;;;;4952694;28;20229;-68
2022/03/06 10:30:49;;;;;;;17.75;16.55;;;5.10;2.10;;;;;;4954089;29;20172;-68
2022/03/06 10:33:20;;;;;;;20.63;18.85;;;5.10;2.20;;;;;;4934951;29;20230;-69
2022/03/06 10:35:48;;;;;;;19.55;18.02;;;5.10;1.90;;;;;;4935234;29;20172;-68
2022/03/06 10:38:33;;;;;;;18.48;17.13;;;5.00;1.90;;;;;;4934961;29;20290;-69
2022/03/06 10:41:02;;;;;;;20.08;18.20;;;5.10;1.40;;;;;;4952501;29;20270;-68
2022/03/06 10:43:31;;;;;;;19.00;17.40;;;5.10;1.00;;;;;;4953385;28;20178;-69
2022/03/06 10:46:11;;;;;;;18.17;17.02;;;5.10;1.50;;;;;;4953351;28;20520;-68
2022/03/06 10:48:39;;;;;;;18.98;17.45;;;5.20;1.20;;;;;;4976337;23;21396;-74
2022/03/06 10:51:10;;;;;;;19.83;18.20;;;5.10;1.50;;;;;;4970379;28;20190;-74
2022/03/06 10:53:35;;;;;;;17.95;16.75;;;5.10;1.50;;;;;;4975122;28;20494;-73
2022/03/06 10:56:12;;;;;;;18.03;16.83;;;5.20;1.40;;;;;;4973891;28;20184;-74
2022/03/06 10:58:40;;;;;;;20.77;19.23;;;5.40;1.20;;;;;;4964200;28;20226;-73
2022/03/06 11:01:06;;;;;;;18.70;17.45;;;5.50;1.00;;;;;;4973098;28;20669;-73
2022/03/06 11:03:35;;;;;;;18.93;17.57;;;5.60;1.00;;;;;;4974990;28;20211;-72
2022/03/06 11:06:01;;;;;;;19.27;17.63;;;5.60;1.00;;;;;;4972182;28;20480;-73
2022/03/06 11:08:27;;;;;;;17.90;16.70;;;5.70;1.10;;;;;;4953241;28;20571;-73
2022/03/06 11:10:53;;;;;;;19.73;18.00;;;5.70;1.00;;;;;;4953975;28;20422;-74
2022/03/06 11:13:19;;;;;;;19.60;18.00;;;5.10;1.00;;;;;;4955653;28;20448;-72
2022/03/06 11:15:44;;;;;;;18.00;16.70;;;5.50;1.70;;;;;;4990204;28;20774;-72
2022/03/06 11:18:10;;;;;;;20.23;18.50;;;5.80;1.00;;;;;;4973093;28;20474;-71
2022/03/06 11:20:39;;;;;;;18.87;17.47;;;6.20;1.00;;;;;;4973720;28;20275;-71
2022/03/06 11:23:38;;;;;;;18.52;17.33;;;6.20;1.00;;;;;;4993542;28;20187;-70
2022/03/06 11:26:10;;;;;;;18.38;17.13;;;6.30;1.00;;;;;;4992647;28;20183;-72
2022/03/06 11:28:43;;;;;;;19.55;18.10;;;6.10;1.00;;;;;;4992954;28;20265;-72
2022/03/06 11:31:09;;;;;;;17.95;16.75;;;5.80;1.00;;;;;;4988888;28;20675;-71
2022/03/06 11:33:35;;;;;;;18.83;17.52;;;5.60;1.00;;;;;;4973137;28;20188;-71
2022/03/06 11:36:23;;;;;;;18.87;17.70;;;5.80;1.00;;;;;;4972908;28;20238;-72
2022/03/06 11:38:51;;;;;;;18.77;17.50;;;6.00;1.00;;;;;;4972751;28;20222;-72
2022/03/06 11:41:17;;;;;;;18.25;16.85;;;6.00;1.00;;;;;;4978484;28;20182;-73
2022/03/06 11:43:48;;;;;;;20.07;18.27;;;6.20;1.00;;;;;;4994695;28;20171;-71
2022/03/06 11:46:24;;;;;;;18.70;17.30;;;6.20;1.00;;;;;;4991934;28;20418;-72
2022/03/06 11:48:50;;;;;;;17.40;16.10;;;5.70;1.00;;;;;;4992393;28;20462;-73
2022/03/06 11:51:18;;;;;;;17.77;16.57;;;5.80;1.00;;;;;;4985252;28;20202;-73
2022/03/06 11:54:14;;;;;;;20.90;19.15;;;6.00;1.00;;;;;;4973981;28;20186;-72
2022/03/06 11:56:45;;;;;;;19.60;18.10;;;6.20;1.00;;;;;;4974862;28;20223;-69
2022/03/06 11:59:16;;;;;;;18.27;16.95;;;6.10;1.00;;;;;;4972833;28;20461;-70
2022/03/06 12:01:47;;;;;;;19.45;18.20;;;5.80;1.00;;;;;;4972646;28;20199;-70
2022/03/06 12:04:19;;;;;;;20.95;18.88;;;5.40;1.00;;;;;;4973173;28;20175;-70
2022/03/06 12:06:56;;;;;;;21.27;19.60;;;5.20;1.00;;;;;;4986619;28;20194;-69
2022/03/06 12:09:24;;;;;;;19.45;17.90;;;5.50;1.00;;;;;;4992456;28;20284;-69
2022/03/06 12:11:58;;;;;;;18.60;17.15;;;5.70;1.00;;;;;;4992788;28;20548;-69
2022/03/06 12:14:24;;;;;;;19.10;17.50;;;5.80;1.00;;;;;;4992116;28;20542;-69
2022/03/06 12:17:06;;;;;;;21.48;19.25;;;5.90;1.00;;;;;;4977303;28;20694;-69
2022/03/06 12:19:53;;;;;;;18.33;17.10;;;5.40;1.00;;;;;;4975200;28;20206;-69
2022/03/06 12:22:28;;;;;;;17.80;16.40;;;5.50;1.00;;;;;;4957080;29;20190;-69
2022/03/06 12:25:09;;;;;;;19.10;17.50;;;5.80;1.00;;;;;;4964251;29;20187;-69
2022/03/06 12:27:36;;;;;;;18.70;17.50;;;5.90;1.00;;;;;;5003321;28;20713;-69
2022/03/06 12:30:16;;;;;;;19.27;17.70;;;5.80;1.00;;;;;;4996100;28;20188;-69
2022/03/06 12:32:42;;;;;;;20.13;18.73;;;5.80;1.00;;;;;;4995793;28;20261;-70